Kingshill, Virgin Islands
Current Conditions -  °F | °C
As of 9:53 PM on Thursday 23 Oct 2014 (Local Time) from TIST Reporting Station
Clear Clear  
Wind Chill: 81°   Ceiling: Unl
Heat Index: 87°   Visibility: 10mi
Dew Point: 75°   Wind: 6mph
Humidity: 82%   Direction: 100°E
Pressure: 29.95"   Gusts: NA
Location:  17.72°N, 64.78°W
Report Text: TIST 240153Z AUTO 10005KT 10SM CLR 27/24 A2995 RMK AO2 SLP143 T02720239 TSNO
Loading
Personal Weather Stations






























Interactive Weather Map New forecast layout! Learn more

10-Day Weather Forecast

Advertisements
Track Severe Weather on mobile